Time;durP1;ratioP1;P1;durP2;ratioP2;P2;SDS_P1;SDS_P2;PMS_P1;PMS_P2;Temp;Humidity;BMP_temperature;BMP_pressure;BME280_temperature;BME280_humidity;BME280_pressure;Samples;Min_cycle;Max_cycle;Signal;HPM_P1;HPM_P2
2023/12/13 00:00:36;;;;;;;58.27;26.53;;;;;;;3.83;100.00;99240.50;4190433;28;20333;-69
2023/12/13 00:03:03;;;;;;;57.33;27.07;;;;;;;3.80;100.00;99236.28;4190614;28;20646;-69
2023/12/13 00:05:30;;;;;;;64.47;29.23;;;;;;;3.71;100.00;99230.84;4189125;28;20304;-69
2023/12/13 00:07:57;;;;;;;62.27;29.30;;;;;;;3.49;100.00;99227.34;4189605;28;21679;-69
2023/12/13 00:10:24;;;;;;;58.10;28.53;;;;;;;3.34;100.00;99232.22;4180999;28;20317;-66
2023/12/13 00:12:50;;;;;;;57.87;28.67;;;;;;;3.42;100.00;99229.72;4177812;28;20238;-68
2023/12/13 00:15:17;;;;;;;61.87;29.13;;;;;;;3.41;100.00;99240.53;4187206;28;20462;-68
2023/12/13 00:17:43;;;;;;;79.13;31.80;;;;;;;3.68;100.00;99236.50;4183541;28;21780;-66
2023/12/13 00:20:10;;;;;;;70.23;30.13;;;;;;;3.69;100.00;99239.03;4169408;28;20233;-67
2023/12/13 00:22:37;;;;;;;74.50;31.33;;;;;;;3.62;100.00;99229.81;4179891;28;20684;-69
2023/12/13 00:25:04;;;;;;;65.73;30.33;;;;;;;3.64;100.00;99230.56;4181836;28;20389;-67
2023/12/13 00:27:31;;;;;;;69.33;30.40;;;;;;;3.46;100.00;99231.16;4182745;28;23502;-66
2023/12/13 00:29:58;;;;;;;68.00;31.30;;;;;;;3.36;100.00;99234.75;4176018;28;20356;-68
2023/12/13 00:32:24;;;;;;;74.43;32.37;;;;;;;3.40;100.00;99230.84;4179710;28;22317;-66
2023/12/13 00:34:51;;;;;;;65.07;30.60;;;;;;;3.47;100.00;99230.19;4184868;28;20269;-67
2023/12/13 00:37:18;;;;;;;70.00;31.23;;;;;;;3.54;100.00;99226.97;4197356;28;20496;-70
2023/12/13 00:39:44;;;;;;;70.73;31.33;;;;;;;3.43;100.00;99222.53;4180937;28;27347;-68
2023/12/13 00:42:12;;;;;;;69.50;29.53;;;;;;;3.41;100.00;99224.50;4176662;28;20241;-69
2023/12/13 00:44:39;;;;;;;65.43;30.30;;;;;;;3.40;100.00;99228.16;4181211;28;20403;-68
2023/12/13 00:47:06;;;;;;;73.37;30.73;;;;;;;3.37;100.00;99228.41;4182194;28;20234;-66
2023/12/13 00:49:33;;;;;;;66.40;30.67;;;;;;;3.42;100.00;99221.72;4166894;28;20338;-69
2023/12/13 00:52:00;;;;;;;65.70;29.30;;;;;;;3.39;100.00;99227.31;4175146;28;20244;-67
2023/12/13 00:54:26;;;;;;;67.33;30.53;;;;;;;3.44;100.00;99227.75;4234820;28;21691;-68
2023/12/13 00:56:53;;;;;;;75.53;32.07;;;;;;;3.49;100.00;99233.56;4199139;28;20261;-68
2023/12/13 00:59:20;;;;;;;67.83;30.30;;;;;;;3.44;100.00;99235.78;4184389;28;20242;-69
2023/12/13 01:01:46;;;;;;;65.60;29.43;;;;;;;3.61;100.00;99223.66;4176001;28;20234;-66
2023/12/13 01:04:13;;;;;;;71.27;30.50;;;;;;;3.40;100.00;99222.81;4184772;28;20349;-69
2023/12/13 01:06:40;;;;;;;74.00;32.77;;;;;;;3.29;100.00;99221.03;4185794;28;21233;-67
2023/12/13 01:09:08;;;;;;;71.60;30.67;;;;;;;3.20;100.00;99221.84;4173145;28;22927;-67
2023/12/13 01:11:35;;;;;;;75.10;32.13;;;;;;;3.16;100.00;99221.25;4178262;28;20236;-66
2023/12/13 01:14:06;;;;;;;71.33;31.33;;;;;;;3.23;100.00;99218.88;4177512;28;20240;-68
2023/12/13 01:16:34;;;;;;;77.17;33.53;;;;;;;3.19;100.00;99212.13;4188908;28;21959;-68
2023/12/13 01:19:01;;;;;;;70.00;31.13;;;;;;;3.23;100.00;99211.72;4179366;28;20233;-67
2023/12/13 01:21:28;;;;;;;69.47;30.47;;;;;;;3.34;100.00;99218.84;4179308;28;20765;-66
2023/12/13 01:23:56;;;;;;;67.70;29.40;;;;;;;3.30;100.00;99207.56;4185740;28;20241;-69
2023/12/13 01:26:22;;;;;;;73.73;31.67;;;;;;;3.26;100.00;99203.44;4182001;28;20353;-68
2023/12/13 01:28:49;;;;;;;66.87;30.77;;;;;;;3.26;100.00;99203.44;4177475;28;21712;-68
2023/12/13 01:31:17;;;;;;;72.10;29.93;;;;;;;3.32;100.00;99202.91;4173837;28;20240;-66
2023/12/13 01:33:44;;;;;;;68.77;30.03;;;;;;;3.40;100.00;99201.41;4187981;28;22241;-68
2023/12/13 01:36:11;;;;;;;66.60;29.17;;;;;;;3.44;100.00;99202.84;4180030;28;20331;-68
2023/12/13 01:38:38;;;;;;;76.00;31.13;;;;;;;3.32;100.00;99207.41;4173942;28;20225;-65
2023/12/13 01:41:05;;;;;;;70.03;29.83;;;;;;;3.29;100.00;99205.00;4198320;28;20297;-66
2023/12/13 01:43:41;;;;;;;67.40;29.67;;;;;;;3.33;100.00;99195.75;4185258;28;21520;-69
2023/12/13 01:46:10;;;;;;;69.27;29.43;;;;;;;3.33;100.00;99195.75;4184903;28;20369;-66
2023/12/13 01:48:37;;;;;;;69.27;29.97;;;;;;;3.30;100.00;99198.66;4166509;28;20234;-68
2023/12/13 01:51:05;;;;;;;62.67;27.93;;;;;;;3.34;100.00;99200.13;4180920;28;20982;-71
2023/12/13 01:53:32;;;;;;;66.30;30.27;;;;;;;3.40;100.00;99183.53;4180559;28;20257;-67
2023/12/13 01:56:04;;;;;;;70.00;30.57;;;;;;;3.61;100.00;99188.00;4172881;28;21201;-66
2023/12/13 01:58:32;;;;;;;72.40;31.03;;;;;;;3.48;100.00;99193.56;4181712;28;21874;-68
2023/12/13 02:01:02;;;;;;;67.33;28.63;;;;;;;3.41;100.00;99198.59;4181245;28;20249;-68
2023/12/13 02:03:30;;;;;;;71.87;30.20;;;;;;;3.49;100.00;99190.75;4179932;28;20304;-70
2023/12/13 02:05:56;;;;;;;73.13;30.73;;;;;;;3.28;100.00;99182.75;4186779;28;22737;-67
2023/12/13 02:08:23;;;;;;;82.05;36.20;;;;;;;3.12;100.00;99179.69;4179381;28;20896;-66
2023/12/13 02:10:50;;;;;;;79.47;32.83;;;;;;;3.03;100.00;99172.44;4181994;28;20336;-66
2023/12/13 02:13:17;;;;;;;76.07;34.40;;;;;;;3.05;100.00;99174.03;4191349;28;20236;-66
2023/12/13 02:15:45;;;;;;;73.47;30.53;;;;;;;3.09;100.00;99174.63;4175258;28;20377;-68
2023/12/13 02:18:14;;;;;;;75.43;31.70;;;;;;;3.07;100.00;99177.41;4180445;28;21115;-65
2023/12/13 02:20:44;;;;;;;75.40;31.57;;;;;;;3.08;100.00;99167.56;4184291;28;20306;-66
2023/12/13 02:23:11;;;;;;;65.60;28.83;;;;;;;3.10;100.00;99169.13;4182430;28;20437;-66
2023/12/13 02:25:47;;;;;;;76.90;31.60;;;;;;;3.08;100.00;99157.72;4175290;28;20256;-65
2023/12/13 02:28:15;;;;;;;70.47;31.50;;;;;;;3.14;100.00;99151.00;4178827;28;21229;-66
2023/12/13 02:30:43;;;;;;;77.57;31.67;;;;;;;3.04;100.00;99152.75;4182740;28;20238;-67
2023/12/13 02:33:10;;;;;;;73.03;31.60;;;;;;;2.95;100.00;99152.56;4188173;28;21000;-69
2023/12/13 02:35:36;;;;;;;68.13;30.03;;;;;;;3.05;100.00;99160.66;4174603;28;20388;-66
2023/12/13 02:38:03;;;;;;;72.73;31.53;;;;;;;3.06;100.00;99148.97;4182480;28;20234;-67
2023/12/13 02:40:30;;;;;;;68.43;30.93;;;;;;;3.06;100.00;99140.94;4192586;28;21011;-67
2023/12/13 02:42:56;;;;;;;64.20;27.40;;;;;;;3.11;100.00;99154.78;4184511;28;20237;-66
2023/12/13 02:45:23;;;;;;;72.87;31.43;;;;;;;3.15;100.00;99150.03;4179616;28;21620;-66
2023/12/13 02:47:52;;;;;;;72.17;32.50;;;;;;;3.10;100.00;99142.41;4185448;28;20268;-67
2023/12/13 02:50:19;;;;;;;70.90;31.50;;;;;;;3.06;100.00;99140.13;4186290;28;20233;-65
2023/12/13 02:52:46;;;;;;;65.30;28.87;;;;;;;2.95;100.00;99144.53;4179791;28;20260;-65
2023/12/13 02:55:13;;;;;;;79.93;32.50;;;;;;;2.85;100.00;99136.47;4181035;28;20546;-68
2023/12/13 02:57:40;;;;;;;77.50;31.60;;;;;;;2.81;100.00;99136.84;4185089;28;20249;-70
2023/12/13 03:00:07;;;;;;;73.30;30.27;;;;;;;2.87;100.00;99138.16;4180522;28;20484;-69
2023/12/13 03:02:34;;;;;;;65.97;29.57;;;;;;;2.93;100.00;99124.25;4178496;28;20291;-68
2023/12/13 03:05:03;;;;;;;74.57;30.67;;;;;;;2.95;100.00;99125.81;4183585;28;20526;-67
2023/12/13 03:07:30;;;;;;;63.90;28.47;;;;;;;2.99;100.00;99129.09;4184214;28;26318;-66
2023/12/13 03:09:57;;;;;;;71.00;30.20;;;;;;;2.90;100.00;99133.41;4180616;28;20236;-65
2023/12/13 03:12:24;;;;;;;67.17;29.83;;;;;;;2.95;100.00;99123.16;4185021;28;21178;-67
2023/12/13 03:14:50;;;;;;;70.33;29.97;;;;;;;2.84;100.00;99121.41;4184567;28;26715;-66
2023/12/13 03:17:17;;;;;;;67.03;29.23;;;;;;;2.87;100.00;99114.94;4188556;28;20657;-65
2023/12/13 03:19:44;;;;;;;67.47;28.07;;;;;;;2.95;100.00;99120.47;4185009;28;20833;-67
2023/12/13 03:22:10;;;;;;;62.30;27.60;;;;;;;3.01;100.00;99133.34;4188107;28;20296;-65
2023/12/13 03:24:37;;;;;;;63.00;27.57;;;;;;;3.04;100.00;99124.22;4186100;28;20487;-69
2023/12/13 03:27:04;;;;;;;64.20;27.60;;;;;;;3.02;100.00;99120.81;4185563;28;20324;-66
2023/12/13 03:29:30;;;;;;;63.43;28.93;;;;;;;3.00;100.00;99120.97;4189430;28;20455;-66
2023/12/13 03:31:57;;;;;;;61.63;27.13;;;;;;;3.01;100.00;99129.81;4180971;28;20296;-66
2023/12/13 03:34:25;;;;;;;62.10;27.87;;;;;;;3.04;100.00;99134.91;4183295;28;20608;-67
2023/12/13 03:36:51;;;;;;;64.93;26.60;;;;;;;2.96;100.00;99122.19;4189284;28;20642;-68
2023/12/13 03:39:18;;;;;;;67.13;27.70;;;;;;;3.00;100.00;99125.44;4188433;28;20986;-66
2023/12/13 03:41:45;;;;;;;65.17;27.43;;;;;;;3.08;100.00;99117.59;4177978;28;21159;-67
2023/12/13 03:44:11;;;;;;;64.33;27.87;;;;;;;3.16;100.00;99114.28;4183639;28;20231;-68
2023/12/13 03:46:38;;;;;;;61.00;27.17;;;;;;;3.09;100.00;99113.97;4191364;28;20339;-65
2023/12/13 03:49:07;;;;;;;58.60;25.40;;;;;;;3.03;100.00;99116.31;4182276;28;20436;-67
2023/12/13 03:51:35;;;;;;;57.47;25.40;;;;;;;3.08;100.00;99119.44;4184920;28;21759;-67
2023/12/13 03:54:02;;;;;;;62.60;26.70;;;;;;;3.07;100.00;99117.75;4183384;28;20247;-65
2023/12/13 03:56:29;;;;;;;56.87;26.03;;;;;;;3.06;100.00;99116.06;4190765;28;20248;-65
2023/12/13 03:58:56;;;;;;;54.50;26.00;;;;;;;3.11;100.00;99117.34;4189397;28;20669;-66
2023/12/13 04:01:23;;;;;;;62.57;27.30;;;;;;;2.92;100.00;99110.06;4186668;28;20240;-66
2023/12/13 04:03:50;;;;;;;63.30;26.20;;;;;;;3.00;100.00;99114.75;4195752;28;20229;-67
2023/12/13 04:06:17;;;;;;;55.10;25.93;;;;;;;2.93;100.00;99119.78;4183426;28;20597;-70
2023/12/13 04:08:44;;;;;;;65.50;27.40;;;;;;;2.89;100.00;99106.81;4182421;28;20257;-66
2023/12/13 04:11:10;;;;;;;59.23;25.53;;;;;;;3.06;100.00;99116.88;4180610;28;20311;-64
2023/12/13 04:13:37;;;;;;;59.10;26.97;;;;;;;3.11;100.00;99120.03;4184758;28;20234;-67
2023/12/13 04:16:04;;;;;;;64.50;27.87;;;;;;;3.07;100.00;99117.75;4189168;28;20236;-68
2023/12/13 04:18:30;;;;;;;69.20;27.77;;;;;;;3.00;100.00;99115.59;4183802;28;23656;-66
2023/12/13 04:20:57;;;;;;;64.33;25.90;;;;;;;2.97;100.00;99121.22;4180999;28;21056;-67
2023/12/13 04:23:24;;;;;;;72.17;28.47;;;;;;;2.97;100.00;99121.22;4182887;28;24296;-68
2023/12/13 04:25:51;;;;;;;68.03;26.03;;;;;;;3.01;100.00;99122.66;4188046;28;20238;-66
2023/12/13 04:28:18;;;;;;;70.43;27.10;;;;;;;3.08;100.00;99119.44;4185348;28;20658;-65
2023/12/13 04:30:45;;;;;;;75.77;27.70;;;;;;;3.09;100.00;99124.66;4181657;28;20363;-68
2023/12/13 04:33:12;;;;;;;82.40;28.10;;;;;;;3.09;100.00;99115.81;4187742;28;20267;-68
2023/12/13 04:35:39;;;;;;;73.73;28.37;;;;;;;3.05;100.00;99125.03;4196281;28;20566;-65
2023/12/13 04:38:05;;;;;;;74.27;27.57;;;;;;;3.01;100.00;99119.97;4179417;28;20236;-66
2023/12/13 04:40:32;;;;;;;87.20;29.77;;;;;;;3.06;100.00;99116.06;4180891;28;20893;-68
2023/12/13 04:43:00;;;;;;;85.37;28.13;;;;;;;3.12;100.00;99115.53;4185271;28;20235;-69
2023/12/13 04:45:27;;;;;;;70.77;25.83;;;;;;;3.10;100.00;99114.78;4185456;28;20369;-65
2023/12/13 04:47:54;;;;;;;86.63;28.33;;;;;;;3.07;100.00;99118.59;4188338;28;20229;-67
2023/12/13 04:50:22;;;;;;;76.07;25.80;;;;;;;3.10;100.00;99122.81;4188362;28;21080;-67
2023/12/13 04:52:49;;;;;;;71.43;26.07;;;;;;;3.09;100.00;99121.97;4185018;28;20237;-65
2023/12/13 04:55:15;;;;;;;85.97;26.10;;;;;;;3.08;100.00;99122.13;4177235;28;20295;-65
2023/12/13 04:57:42;;;;;;;95.10;28.00;;;;;;;3.05;100.00;99111.69;4189941;28;20748;-65
2023/12/13 05:00:09;;;;;;;85.03;27.43;;;;;;;3.08;100.00;99114.94;4174081;28;25075;-70
2023/12/13 05:02:36;;;;;;;93.33;29.27;;;;;;;3.08;100.00;99116.78;4183781;28;20235;-65
2023/12/13 05:05:03;;;;;;;83.23;28.17;;;;;;;3.19;100.00;99115.84;4186088;28;20626;-65
2023/12/13 05:07:30;;;;;;;81.97;26.53;;;;;;;3.22;100.00;99115.56;4184762;28;20774;-66
2023/12/13 05:09:57;;;;;;;77.00;26.70;;;;;;;3.22;100.00;99102.19;4179584;28;20299;-66
2023/12/13 05:12:23;;;;;;;73.77;26.10;;;;;;;3.36;100.00;99106.34;4186431;28;20249;-66
2023/12/13 05:14:50;;;;;;;76.50;27.10;;;;;;;3.36;100.00;99109.84;4191945;28;20233;-66
2023/12/13 05:17:17;;;;;;;75.63;27.67;;;;;;;3.38;100.00;99099.88;4179708;28;20234;-65
2023/12/13 05:19:43;;;;;;;83.23;29.20;;;;;;;3.23;100.00;99101.22;4179211;28;20288;-68
2023/12/13 05:22:10;;;;;;;77.73;29.27;;;;;;;3.26;100.00;99101.78;4189911;28;20304;-70
2023/12/13 05:24:37;;;;;;;84.40;28.13;;;;;;;3.23;100.00;99101.22;4186341;28;20378;-65
2023/12/13 05:27:03;;;;;;;83.37;28.50;;;;;;;3.21;100.00;99100.53;4177766;28;20311;-68
2023/12/13 05:29:30;;;;;;;92.50;31.07;;;;;;;3.22;100.00;99096.84;4187121;28;20847;-68
2023/12/13 05:31:57;;;;;;;83.90;28.13;;;;;;;3.16;100.00;99101.75;4191305;28;20252;-68
2023/12/13 05:34:24;;;;;;;104.23;29.03;;;;;;;3.19;100.00;99103.31;4180932;28;20317;-67
2023/12/13 05:36:50;;;;;;;107.30;29.93;;;;;;;3.10;100.00;99096.06;4178467;28;20324;-67
2023/12/13 05:39:17;;;;;;;96.90;28.60;;;;;;;3.14;100.00;99098.34;4187587;28;21343;-67
2023/12/13 05:41:43;;;;;;;99.83;29.53;;;;;;;3.10;100.00;99094.25;4186933;28;20342;-71
2023/12/13 05:44:10;;;;;;;101.07;28.17;;;;;;;3.15;100.00;99097.38;4183670;28;20246;-65
2023/12/13 05:46:37;;;;;;;105.87;29.23;;;;;;;3.17;100.00;99094.59;4181427;28;22615;-63
2023/12/13 05:49:05;;;;;;;132.40;31.03;;;;;;;3.15;100.00;99088.53;4185185;28;20244;-66
2023/12/13 05:51:35;;;;;;;110.13;29.73;;;;;;;3.19;100.00;99091.78;4187661;28;20299;-68
2023/12/13 05:54:01;;;;;;;126.10;29.73;;;;;;;3.22;100.00;99083.47;4184218;28;20233;-66
2023/12/13 05:56:28;;;;;;;94.73;26.57;;;;;;;3.21;100.00;99087.16;4179250;28;20241;-66
2023/12/13 05:58:54;;;;;;;130.20;29.00;;;;;;;3.06;100.00;99065.25;4183864;28;22684;-66
2023/12/13 06:01:22;;;;;;;113.43;30.47;;;;;;;3.11;100.00;99068.38;4184305;28;20524;-67
2023/12/13 06:03:49;;;;;;;128.70;29.37;;;;;;;3.18;100.00;99069.53;4179542;28;20234;-68
2023/12/13 06:06:16;;;;;;;133.50;30.30;;;;;;;3.21;100.00;99066.59;4168844;28;20233;-63
2023/12/13 06:08:42;;;;;;;122.70;28.50;;;;;;;3.20;100.00;99072.91;4180227;28;22627;-67
2023/12/13 06:11:09;;;;;;;104.27;28.23;;;;;;;3.15;100.00;99064.47;4206612;28;23267;-66
2023/12/13 06:13:36;;;;;;;110.27;29.07;;;;;;;3.22;100.00;99068.28;4181605;28;20256;-67
2023/12/13 06:16:03;;;;;;;103.97;28.20;;;;;;;3.23;100.00;99061.09;4174146;28;21310;-67
2023/12/13 06:18:29;;;;;;;110.07;29.33;;;;;;;3.26;100.00;99063.53;4187561;28;20225;-66
2023/12/13 06:20:56;;;;;;;105.20;27.33;;;;;;;3.14;100.00;99063.59;4188884;28;20229;-68
2023/12/13 06:23:23;;;;;;;126.70;29.47;;;;;;;3.24;100.00;99069.00;4184816;28;20329;-68
2023/12/13 06:25:50;;;;;;;118.63;29.67;;;;;;;3.20;100.00;99061.38;4184305;28;21464;-67
2023/12/13 06:28:16;;;;;;;117.30;28.37;;;;;;;3.16;100.00;99058.13;4182986;28;21123;-68
2023/12/13 06:30:43;;;;;;;116.53;28.13;;;;;;;2.99;100.00;99067.59;4182856;28;20995;-65
2023/12/13 06:33:10;;;;;;;130.53;29.40;;;;;;;2.94;100.00;99051.13;4198804;28;21577;-67
2023/12/13 06:35:36;;;;;;;114.83;29.53;;;;;;;2.99;100.00;99063.13;4186704;28;20259;-66
2023/12/13 06:38:03;;;;;;;126.43;29.63;;;;;;;3.01;100.00;99069.19;4184861;28;21269;-69
2023/12/13 06:40:30;;;;;;;111.47;28.23;;;;;;;3.03;100.00;99061.03;4188561;28;20225;-63
2023/12/13 06:42:56;;;;;;;111.40;28.90;;;;;;;3.20;100.00;99062.22;4192270;28;20244;-64
2023/12/13 06:45:23;;;;;;;122.50;31.60;;;;;;;3.12;100.00;99062.03;4191949;28;21340;-65
2023/12/13 06:47:51;;;;;;;120.00;29.77;;;;;;;3.14;100.00;99063.59;4206530;28;20305;-64
2023/12/13 06:50:19;;;;;;;121.63;29.63;;;;;;;3.23;100.00;99069.13;4194511;28;25298;-65
2023/12/13 06:52:47;;;;;;;127.70;30.10;;;;;;;3.11;100.00;99063.88;4179013;28;21027;-65
2023/12/13 06:55:14;;;;;;;122.87;29.23;;;;;;;3.16;100.00;99066.16;4185851;28;20343;-66
2023/12/13 06:57:41;;;;;;;134.87;31.97;;;;;;;3.08;100.00;99058.78;4201840;28;20240;-65
2023/12/13 07:00:09;;;;;;;126.33;29.83;;;;;;;3.24;100.00;99047.63;4197171;28;23874;-66
2023/12/13 07:02:36;;;;;;;116.47;30.87;;;;;;;3.22;100.00;99048.72;4184593;28;21498;-68
2023/12/13 07:05:04;;;;;;;110.00;29.33;;;;;;;3.16;100.00;99058.97;4204323;28;20234;-68
2023/12/13 07:07:30;;;;;;;125.60;30.97;;;;;;;3.14;100.00;99052.06;4214111;28;20706;-67
2023/12/13 07:09:58;;;;;;;130.73;30.03;;;;;;;3.31;100.00;99045.22;4191610;28;20337;-68
2023/12/13 07:12:28;;;;;;;133.50;31.87;;;;;;;3.26;100.00;99047.47;4180148;28;20244;-66
2023/12/13 07:14:56;;;;;;;141.87;31.83;;;;;;;3.24;100.00;99058.31;4220124;28;20240;-65
2023/12/13 07:17:23;;;;;;;129.57;32.33;;;;;;;3.21;100.00;99049.72;4194106;28;20626;-71
2023/12/13 07:19:50;;;;;;;141.60;34.10;;;;;;;3.24;100.00;99050.28;4185822;28;20407;-67
2023/12/13 07:22:18;;;;;;;137.70;32.17;;;;;;;3.27;100.00;99046.50;4193104;28;20452;-66
2023/12/13 07:24:45;;;;;;;142.27;35.10;;;;;;;3.23;100.00;99047.72;4213232;28;21767;-67
2023/12/13 07:27:12;;;;;;;131.37;33.27;;;;;;;3.23;100.00;99042.38;4196269;28;20237;-68
2023/12/13 07:29:42;;;;;;;132.77;33.87;;;;;;;3.13;100.00;99053.03;4200680;28;22283;-68
2023/12/13 07:32:09;;;;;;;144.97;32.97;;;;;;;3.10;100.00;99040.78;4211598;28;20695;-70
2023/12/13 07:34:36;;;;;;;132.97;32.47;;;;;;;3.15;100.00;99045.75;4202894;28;21861;-69
2023/12/13 07:37:04;;;;;;;151.93;34.03;;;;;;;3.11;100.00;99038.94;4192262;28;20851;-66
2023/12/13 07:39:31;;;;;;;140.93;33.20;;;;;;;3.24;100.00;99046.75;4190184;28;20281;-66
2023/12/13 07:41:58;;;;;;;135.67;34.13;;;;;;;3.15;100.00;99043.91;4192095;28;20311;-68
2023/12/13 07:44:25;;;;;;;148.17;33.97;;;;;;;3.14;100.00;99044.03;4192350;28;20238;-65
2023/12/13 07:46:52;;;;;;;128.00;34.13;;;;;;;3.17;100.00;99036.59;4184905;28;20412;-70
2023/12/13 07:49:19;;;;;;;135.80;33.20;;;;;;;3.23;100.00;99045.91;4190564;28;20234;-67
2023/12/13 07:51:46;;;;;;;135.57;34.67;;;;;;;3.20;100.00;99035.47;4186995;28;22955;-70
2023/12/13 07:54:16;;;;;;;140.67;34.33;;;;;;;3.15;100.00;99054.59;4185552;28;21998;-69
2023/12/13 07:56:45;;;;;;;142.00;35.83;;;;;;;3.12;100.00;99037.97;4189176;28;22188;-67
2023/12/13 07:59:12;;;;;;;155.57;37.43;;;;;;;3.20;100.00;99040.81;4198450;28;20233;-66
2023/12/13 08:01:39;;;;;;;148.80;35.40;;;;;;;3.15;100.00;99035.03;4194678;28;20382;-68
2023/12/13 08:04:05;;;;;;;134.87;33.77;;;;;;;3.26;100.00;99050.16;4195422;28;22121;-66
2023/12/13 08:06:33;;;;;;;145.67;36.43;;;;;;;3.19;100.00;99040.97;4185532;28;20260;-68
2023/12/13 08:09:01;;;;;;;126.47;32.93;;;;;;;3.25;100.00;99041.25;4185134;28;20225;-66
2023/12/13 08:11:28;;;;;;;134.27;34.67;;;;;;;3.24;100.00;99039.59;4184533;28;20225;-68
2023/12/13 08:13:55;;;;;;;134.27;35.67;;;;;;;3.21;100.00;99036.34;4195953;28;20457;-66
2023/12/13 08:16:22;;;;;;;126.30;36.70;;;;;;;3.28;100.00;99040.16;4204452;28;20377;-70
2023/12/13 08:18:49;;;;;;;132.23;35.00;;;;;;;3.18;100.00;99034.75;4219153;28;20412;-65
2023/12/13 08:21:16;;;;;;;125.60;34.67;;;;;;;3.19;100.00;99036.44;4202614;28;20304;-69
2023/12/13 08:23:43;;;;;;;135.53;34.87;;;;;;;3.19;100.00;99033.78;4210595;28;20249;-69
2023/12/13 08:26:12;;;;;;;127.93;35.83;;;;;;;3.31;100.00;99030.03;4215800;28;20229;-65
2023/12/13 08:28:39;;;;;;;133.47;34.93;;;;;;;3.34;100.00;99036.94;4209274;28;21790;-67
2023/12/13 08:31:07;;;;;;;133.93;33.73;;;;;;;3.42;100.00;99026.41;4216773;28;20817;-70
2023/12/13 08:33:48;;;;;;;120.67;34.67;;;;;;;3.43;100.00;99030.78;4212327;28;21801;-69
2023/12/13 08:36:15;;;;;;;128.33;35.67;;;;;;;3.40;100.00;99023.03;4198009;28;23557;-69
2023/12/13 08:38:42;;;;;;;130.07;32.40;;;;;;;3.41;100.00;99024.72;4203508;28;20226;-67
2023/12/13 08:41:12;;;;;;;119.83;35.90;;;;;;;3.46;100.00;99022.47;4180280;28;20241;-72
2023/12/13 08:43:38;;;;;;;120.93;33.67;;;;;;;3.62;100.00;99024.63;4203567;28;25799;-68
2023/12/13 08:46:06;;;;;;;132.03;35.27;;;;;;;3.48;100.00;99031.22;4196407;28;20245;-69
2023/12/13 08:48:33;;;;;;;127.13;36.70;;;;;;;3.51;100.00;99029.25;4192729;28;20322;-69
2023/12/13 08:51:00;;;;;;;121.87;35.67;;;;;;;3.52;100.00;99026.44;4200073;28;21079;-66
2023/12/13 08:53:27;;;;;;;127.93;34.70;;;;;;;3.41;100.00;99030.06;4192802;28;20233;-66
2023/12/13 08:55:53;;;;;;;126.07;39.00;;;;;;;3.35;100.00;99029.75;4171898;28;22761;-70
2023/12/13 08:58:20;;;;;;;124.67;35.67;;;;;;;3.48;100.00;99038.38;4195464;28;20233;-65
2023/12/13 09:00:47;;;;;;;116.93;35.50;;;;;;;3.47;100.00;99042.06;4195809;28;21779;-67
2023/12/13 09:03:14;;;;;;;118.50;35.87;;;;;;;3.43;100.00;99041.50;4188823;28;21725;-70
2023/12/13 09:05:40;;;;;;;124.03;38.27;;;;;;;3.40;100.00;99036.41;4192627;28;20323;-73
2023/12/13 09:08:07;;;;;;;118.30;36.40;;;;;;;3.41;100.00;99031.88;4195496;28;20234;-71
2023/12/13 09:10:34;;;;;;;125.30;36.57;;;;;;;3.45;100.00;99030.63;4177950;28;20609;-67
2023/12/13 09:13:02;;;;;;;133.93;38.13;;;;;;;3.45;100.00;99034.16;4190826;28;21873;-67
2023/12/13 09:15:31;;;;;;;116.77;36.63;;;;;;;3.46;100.00;99027.00;4182108;28;20249;-68
2023/12/13 09:17:58;;;;;;;121.53;36.07;;;;;;;3.58;100.00;99022.38;4187614;28;20274;-70
2023/12/13 09:20:24;;;;;;;126.93;38.83;;;;;;;3.53;100.00;99017.44;4189382;28;24202;-69
2023/12/13 09:22:51;;;;;;;124.63;37.60;;;;;;;3.49;100.00;99018.66;4194572;28;20236;-67
2023/12/13 09:25:18;;;;;;;137.10;37.27;;;;;;;3.53;100.00;99012.06;4187540;28;20346;-70
2023/12/13 09:27:46;;;;;;;129.97;38.53;;;;;;;3.57;100.00;99016.16;4189859;28;20241;-66
2023/12/13 09:30:13;;;;;;;139.40;39.57;;;;;;;3.55;100.00;99011.94;4188560;28;20237;-66
2023/12/13 09:32:40;;;;;;;126.93;36.93;;;;;;;3.65;100.00;99015.47;4183631;28;20695;-72
2023/12/13 09:35:10;;;;;;;129.47;39.53;;;;;;;3.63;100.00;99009.41;4180278;28;21148;-70
2023/12/13 09:37:37;;;;;;;133.03;39.57;;;;;;;3.58;100.00;99003.63;4193065;28;20239;-67
2023/12/13 09:40:05;;;;;;;136.70;39.47;;;;;;;3.61;100.00;99012.25;4192837;28;20233;-68
2023/12/13 09:42:32;;;;;;;120.23;40.17;;;;;;;3.60;100.00;99007.88;4206949;28;20633;-71
2023/12/13 09:45:04;;;;;;;130.27;38.33;;;;;;;3.64;100.00;99008.44;4202238;28;20237;-73
2023/12/13 09:47:32;;;;;;;147.53;41.87;;;;;;;3.41;100.00;99005.13;4195978;28;20229;-69
2023/12/13 09:49:59;;;;;;;136.73;40.43;;;;;;;3.48;100.00;99004.47;4184522;28;20237;-70
2023/12/13 09:52:29;;;;;;;143.60;40.63;;;;;;;3.42;100.00;98998.81;4183847;28;20307;-70
2023/12/13 09:54:57;;;;;;;136.27;40.67;;;;;;;3.49;100.00;98999.94;4186008;28;21210;-69
2023/12/13 09:57:23;;;;;;;139.80;41.53;;;;;;;3.49;100.00;98992.78;4204640;28;20284;-69
2023/12/13 09:59:50;;;;;;;132.33;39.70;;;;;;;3.52;100.00;98997.00;4188466;28;20225;-67
2023/12/13 10:02:17;;;;;;;142.07;42.83;;;;;;;3.59;100.00;98994.59;4189974;28;20259;-67
2023/12/13 10:04:44;;;;;;;138.13;41.40;;;;;;;3.71;100.00;98992.66;4198508;28;21974;-69
2023/12/13 10:07:12;;;;;;;124.67;42.17;;;;;;;3.71;100.00;98988.16;4192101;28;20234;-71
2023/12/13 10:09:39;;;;;;;118.20;39.73;;;;;;;3.71;100.00;98990.84;4198927;28;20225;-66
2023/12/13 10:12:09;;;;;;;126.13;41.50;;;;;;;3.64;100.00;98990.53;4198574;28;20248;-68
2023/12/13 10:14:36;;;;;;;125.03;43.03;;;;;;;3.52;100.00;98994.31;4191586;28;20316;-66
2023/12/13 10:17:03;;;;;;;127.80;41.53;;;;;;;3.41;100.00;98989.94;4215452;28;20241;-69
2023/12/13 10:19:45;;;;;;;130.87;42.33;;;;;;;3.54;100.00;98986.16;4201073;28;20686;-68
2023/12/13 10:22:12;;;;;;;122.60;43.53;;;;;;;3.55;100.00;98993.19;4186902;28;20233;-74
2023/12/13 10:24:41;;;;;;;132.03;44.00;;;;;;;3.43;100.00;98996.00;4196654;28;20233;-69
2023/12/13 10:27:09;;;;;;;119.13;41.33;;;;;;;3.46;100.00;98992.22;4186106;28;20272;-68
2023/12/13 10:29:36;;;;;;;121.37;45.47;;;;;;;3.67;100.00;98989.41;4189782;28;20242;-68
2023/12/13 10:32:03;;;;;;;125.73;44.00;;;;;;;3.65;100.00;98994.91;4189554;28;25457;-70
2023/12/13 10:34:30;;;;;;;127.93;43.10;;;;;;;3.73;100.00;98993.38;4196674;28;22621;-73
2023/12/13 10:36:58;;;;;;;115.60;41.63;;;;;;;3.62;100.00;98992.53;4190103;28;22108;-71
2023/12/13 10:39:25;;;;;;;121.00;41.73;;;;;;;3.65;100.00;98986.88;4184944;28;21307;-80
2023/12/13 10:41:56;;;;;;;113.63;41.47;;;;;;;3.71;100.00;98995.31;4181123;28;20331;-70
2023/12/13 10:44:26;;;;;;;111.13;42.23;;;;;;;3.64;100.00;98995.88;4192418;28;20229;-66
2023/12/13 10:46:58;;;;;;;122.13;43.27;;;;;;;3.46;100.00;98993.03;4187484;28;20234;-73
2023/12/13 10:49:26;;;;;;;122.90;43.87;;;;;;;3.36;100.00;98989.50;4176354;28;20407;-70
2023/12/13 10:51:54;;;;;;;125.47;45.20;;;;;;;3.36;100.00;98984.13;4187819;28;20238;-69
2023/12/13 10:54:21;;;;;;;113.80;45.13;;;;;;;3.36;100.00;98980.63;4195991;28;21666;-71
2023/12/13 10:56:50;;;;;;;116.47;42.83;;;;;;;3.28;100.00;98978.66;4188711;28;20344;-68
2023/12/13 10:59:18;;;;;;;113.13;43.70;;;;;;;3.38;100.00;98976.84;4185248;28;20245;-73
2023/12/13 11:01:46;;;;;;;124.20;43.57;;;;;;;3.37;100.00;98972.47;4183163;28;20305;-71
2023/12/13 11:04:13;;;;;;;116.70;44.73;;;;;;;3.38;100.00;98967.97;4185179;28;20240;-67
2023/12/13 11:06:46;;;;;;;119.07;42.87;;;;;;;3.45;100.00;98966.44;4183328;28;25906;-69
2023/12/13 11:09:15;;;;;;;124.17;43.77;;;;;;;3.62;100.00;98967.56;4186326;28;20245;-67
2023/12/13 11:11:44;;;;;;;126.10;51.25;;;;;;;3.69;100.00;98968.72;4179473;28;20423;-71
2023/12/13 11:14:12;;;;;;;126.27;46.70;;;;;;;3.79;100.00;98968.72;4180730;28;20444;-68